Terminal Aerodrome Forecast
Issued by NWS Omaha/Valley, NE

Home | Current Version | Previous Version | Text Only | Print | Product List | Glossary On
Versions: 1 2 3 4 5 6 7 8 9 10 11 12 13 14 15 16 17 18 19 20 21 22 23 24 25
000
FTUS43 KOAX 092320
TAFOMA
TAF
KOMA 092320Z 1000/1024 23005KT P6SM SCT090 OVC150
     FM100200 14005KT P6SM BKN100
     FM100500 15008KT P6SM SCT040 OVC100 PROB30 1009/1013 4SM TSRA
      BKN040CB
     FM101400 15010KT P6SM BKN150
     FM101700 16015G22KT P6SM BKN250=

USA.gov is the U.S. government's official web portal to all federal, state and local government web resources and services.